Time;durP1;ratioP1;P1;durP2;ratioP2;P2;SDS_P1;SDS_P2;PMS_P1;PMS_P2;Temp;Humidity;BMP_temperature;BMP_pressure;BME280_temperature;BME280_humidity;BME280_pressure;Samples;Min_cycle;Max_cycle;Signal;HPM_P1;HPM_P2
2023/04/29 00:01:37;;;;;;;18.13;11.57;;;;;;;;;;4997061;28;20061;-78
2023/04/29 00:04:02;;;;;;;18.58;11.77;;;;;;;;;;4995470;28;20280;-78
2023/04/29 00:06:28;;;;;;;17.73;12.18;;;;;;;;;;4994943;28;20041;-78
2023/04/29 00:08:53;;;;;;;17.85;11.45;;;;;;;;;;4997842;28;20022;-78
2023/04/29 00:11:18;;;;;;;19.50;12.13;;;;;;;;;;4996304;28;20033;-78
2023/04/29 00:13:43;;;;;;;19.33;11.15;;;;;;;;;;4998561;28;20026;-78
2023/04/29 00:16:09;;;;;;;16.40;10.90;;;;;;;;;;4997945;28;20042;-79
2023/04/29 00:18:35;;;;;;;21.58;11.52;;;;;;;;;;4997744;28;20405;-79
2023/04/29 00:21:01;;;;;;;17.73;11.77;;;;;;;;;;4995856;28;20026;-78
2023/04/29 00:23:26;;;;;;;17.80;11.23;;;;;;;;;;4997191;28;20450;-78
2023/04/29 00:25:52;;;;;;;16.17;10.63;;;;;;;;;;4996185;28;20030;-80
2023/04/29 00:28:17;;;;;;;19.73;11.68;;;;;;;;;;4996941;28;20315;-78
2023/04/29 00:30:42;;;;;;;17.13;11.00;;;;;;;;;;4997043;28;20053;-78
2023/04/29 00:33:08;;;;;;;19.03;11.23;;;;;;;;;;4996596;28;20110;-78
2023/04/29 00:35:33;;;;;;;18.23;11.68;;;;;;;;;;4994663;28;20283;-78
2023/04/29 00:37:58;;;;;;;15.80;10.68;;;;;;;;;;4996224;28;20474;-78
2023/04/29 00:40:24;;;;;;;22.33;11.80;;;;;;;;;;4996099;28;20022;-78
2023/04/29 00:42:49;;;;;;;24.17;11.85;;;;;;;;;;4995603;28;20049;-78
2023/04/29 00:45:15;;;;;;;18.38;11.00;;;;;;;;;;5010805;28;20026;-78
2023/04/29 00:47:40;;;;;;;21.55;11.85;;;;;;;;;;4994711;28;20105;-77
2023/04/29 00:50:06;;;;;;;20.70;11.70;;;;;;;;;;4994543;28;20030;-78
2023/04/29 00:52:33;;;;;;;20.35;11.63;;;;;;;;;;4993470;28;20026;-78
2023/04/29 00:54:58;;;;;;;17.02;10.90;;;;;;;;;;4995947;28;20030;-79
2023/04/29 00:57:27;;;;;;;18.65;12.23;;;;;;;;;;4995314;28;20533;-79
2023/04/29 00:59:53;;;;;;;20.80;11.68;;;;;;;;;;4994880;28;20064;-78
2023/04/29 01:02:19;;;;;;;20.70;11.57;;;;;;;;;;4995586;28;20499;-78
2023/04/29 01:04:44;;;;;;;18.40;10.93;;;;;;;;;;4993520;28;20028;-78
2023/04/29 01:07:19;;;;;;;19.88;11.27;;;;;;;;;;5009884;28;20307;-79
2023/04/29 01:09:52;;;;;;;19.42;11.77;;;;;;;;;;4994197;28;20030;-78
2023/04/29 01:12:37;;;;;;;18.80;11.63;;;;;;;;;;5009603;28;20026;-79
2023/04/29 01:15:31;;;;;;;19.25;11.30;;;;;;;;;;4994439;28;20037;-78
2023/04/29 01:18:02;;;;;;;25.98;11.65;;;;;;;;;;4994731;28;20525;-78
2023/04/29 01:20:29;;;;;;;17.70;11.02;;;;;;;;;;4994909;28;20088;-78
2023/04/29 01:22:55;;;;;;;22.58;11.45;;;;;;;;;;5010040;28;20500;-78
2023/04/29 01:25:20;;;;;;;21.60;11.63;;;;;;;;;;4994500;28;20068;-78
2023/04/29 01:27:56;;;;;;;18.97;11.43;;;;;;;;;;4993489;28;20482;-78
2023/04/29 01:30:59;;;;;;;20.05;11.55;;;;;;;;;;5009822;28;20786;-78
2023/04/29 01:33:31;;;;;;;19.45;11.40;;;;;;;;;;4994842;28;20049;-78
2023/04/29 01:36:28;;;;;;;23.35;11.32;;;;;;;;;;4995416;28;20053;-78
2023/04/29 01:39:03;;;;;;;23.50;11.90;;;;;;;;;;4993809;28;20106;-78
2023/04/29 01:41:43;;;;;;;21.80;12.35;;;;;;;;;;4993621;28;20026;-78
2023/04/29 01:44:20;;;;;;;19.92;13.05;;;;;;;;;;4993883;28;20375;-80
2023/04/29 01:46:50;;;;;;;22.73;13.02;;;;;;;;;;4994983;28;20026;-78
2023/04/29 01:49:19;;;;;;;20.98;12.93;;;;;;;;;;4994960;28;20042;-79
2023/04/29 01:51:44;;;;;;;19.98;13.20;;;;;;;;;;4995330;28;20057;-79
2023/04/29 01:54:10;;;;;;;23.50;13.07;;;;;;;;;;4995965;28;20037;-79
2023/04/29 01:56:35;;;;;;;24.73;14.50;;;;;;;;;;4994305;28;20260;-79
2023/04/29 01:59:00;;;;;;;27.80;13.87;;;;;;;;;;4995510;28;20026;-79
2023/04/29 02:01:26;;;;;;;26.00;14.32;;;;;;;;;;4994385;28;20346;-79
2023/04/29 02:03:51;;;;;;;26.58;14.52;;;;;;;;;;4995865;28;20026;-79
2023/04/29 02:06:16;;;;;;;27.90;14.47;;;;;;;;;;4995821;28;20478;-79
2023/04/29 02:08:41;;;;;;;25.03;14.77;;;;;;;;;;4995615;28;20295;-79
2023/04/29 02:11:07;;;;;;;26.30;14.75;;;;;;;;;;4993733;28;20743;-79
2023/04/29 02:13:32;;;;;;;25.92;15.50;;;;;;;;;;4995552;28;20026;-78
2023/04/29 02:16:06;;;;;;;26.83;15.03;;;;;;;;;;4995284;28;20061;-79
2023/04/29 02:18:31;;;;;;;26.35;14.35;;;;;;;;;;4994608;28;20287;-80
2023/04/29 02:21:00;;;;;;;30.20;15.27;;;;;;;;;;4994399;28;20022;-78
2023/04/29 02:23:26;;;;;;;25.05;15.77;;;;;;;;;;4994943;28;20322;-78
2023/04/29 02:25:51;;;;;;;27.10;15.13;;;;;;;;;;4996014;28;20030;-79
2023/04/29 02:28:16;;;;;;;27.97;14.93;;;;;;;;;;4998500;28;20307;-78
2023/04/29 02:30:42;;;;;;;27.92;15.45;;;;;;;;;;5014864;28;20323;-79
2023/04/29 02:33:07;;;;;;;28.48;16.58;;;;;;;;;;4998993;28;20065;-79
2023/04/29 02:35:32;;;;;;;28.83;15.88;;;;;;;;;;4998809;28;20045;-79
2023/04/29 02:37:57;;;;;;;33.27;15.10;;;;;;;;;;4998765;28;20109;-79
2023/04/29 02:40:24;;;;;;;25.30;14.83;;;;;;;;;;4998660;28;20354;-78
2023/04/29 02:42:49;;;;;;;27.30;14.73;;;;;;;;;;5013131;28;20367;-78
2023/04/29 02:45:15;;;;;;;25.15;15.02;;;;;;;;;;4998135;28;20057;-77
2023/04/29 02:47:40;;;;;;;27.55;14.88;;;;;;;;;;4996657;28;20022;-77
2023/04/29 02:50:06;;;;;;;29.77;15.50;;;;;;;;;;4997827;28;20038;-77
2023/04/29 02:52:31;;;;;;;25.92;14.90;;;;;;;;;;5012834;28;20112;-79
2023/04/29 02:54:56;;;;;;;28.23;14.45;;;;;;;;;;4996255;28;20030;-78
2023/04/29 02:57:21;;;;;;;23.80;13.63;;;;;;;;;;4996252;28;20018;-78
2023/04/29 02:59:47;;;;;;;26.75;14.23;;;;;;;;;;4996290;28;20308;-78
2023/04/29 03:02:12;;;;;;;25.58;13.57;;;;;;;;;;4997424;28;20405;-78
2023/04/29 03:04:38;;;;;;;23.80;13.98;;;;;;;;;;4996828;28;20027;-79
2023/04/29 03:07:04;;;;;;;29.73;14.68;;;;;;;;;;4996400;28;20026;-79
2023/04/29 03:09:29;;;;;;;25.00;14.43;;;;;;;;;;4997553;28;20026;-79
2023/04/29 03:11:55;;;;;;;28.10;13.38;;;;;;;;;;4997828;28;20026;-79
2023/04/29 03:14:20;;;;;;;24.05;12.15;;;;;;;;;;5012771;28;20031;-78
2023/04/29 03:16:45;;;;;;;21.85;12.73;;;;;;;;;;4996720;28;20038;-78
2023/04/29 03:19:10;;;;;;;21.40;11.85;;;;;;;;;;4997516;28;20085;-79
2023/04/29 03:21:36;;;;;;;24.80;12.45;;;;;;;;;;4996707;28;20101;-78
2023/04/29 03:24:01;;;;;;;23.20;11.88;;;;;;;;;;4996430;28;20026;-78
2023/04/29 03:26:26;;;;;;;23.65;11.77;;;;;;;;;;4997010;28;20033;-78
2023/04/29 03:28:52;;;;;;;19.38;11.45;;;;;;;;;;4997362;28;20050;-78
2023/04/29 03:31:19;;;;;;;21.50;11.15;;;;;;;;;;5012144;28;20061;-78
2023/04/29 03:33:44;;;;;;;21.23;11.15;;;;;;;;;;4997585;28;20029;-78
2023/04/29 03:36:10;;;;;;;18.87;10.23;;;;;;;;;;4997183;28;20030;-78
2023/04/29 03:38:35;;;;;;;19.93;10.40;;;;;;;;;;4997461;28;20264;-78
2023/04/29 03:41:01;;;;;;;20.80;10.87;;;;;;;;;;4996056;28;20264;-79
2023/04/29 03:43:26;;;;;;;24.45;10.85;;;;;;;;;;4995452;28;20279;-79
2023/04/29 03:45:52;;;;;;;21.60;11.15;;;;;;;;;;4996450;28;20118;-78
2023/04/29 03:48:18;;;;;;;20.00;11.07;;;;;;;;;;4995733;28;20038;-78
2023/04/29 03:50:44;;;;;;;17.60;10.00;;;;;;;;;;4997206;28;20030;-78
2023/04/29 03:53:10;;;;;;;20.50;10.75;;;;;;;;;;4996788;28;20105;-78
2023/04/29 03:55:35;;;;;;;17.55;9.93;;;;;;;;;;4996473;28;20430;-79
2023/04/29 03:58:01;;;;;;;19.43;9.43;;;;;;;;;;4996993;28;20028;-79
2023/04/29 04:00:29;;;;;;;18.63;9.57;;;;;;;;;;4996924;28;20767;-79
2023/04/29 04:02:55;;;;;;;18.13;9.75;;;;;;;;;;4997156;28;20280;-79
2023/04/29 04:05:23;;;;;;;17.95;9.48;;;;;;;;;;4995661;28;20041;-79
2023/04/29 04:07:49;;;;;;;15.25;9.40;;;;;;;;;;4996770;28;20130;-78
2023/04/29 04:10:14;;;;;;;17.45;9.50;;;;;;;;;;4996485;28;20502;-78
2023/04/29 04:12:39;;;;;;;18.27;9.07;;;;;;;;;;4996194;28;20033;-78
2023/04/29 04:15:05;;;;;;;14.43;8.63;;;;;;;;;;5011602;28;20030;-78
2023/04/29 04:17:30;;;;;;;15.88;9.00;;;;;;;;;;4996346;28;20278;-79
2023/04/29 04:19:55;;;;;;;18.27;8.83;;;;;;;;;;4997043;28;20030;-79
2023/04/29 04:22:21;;;;;;;15.15;8.05;;;;;;;;;;4996371;28;20275;-78
2023/04/29 04:24:46;;;;;;;14.37;8.20;;;;;;;;;;4994642;28;20081;-79
2023/04/29 04:27:12;;;;;;;16.00;7.87;;;;;;;;;;4995989;28;20260;-79
2023/04/29 04:29:37;;;;;;;16.00;7.78;;;;;;;;;;4996576;28;20247;-78
2023/04/29 04:32:03;;;;;;;17.55;8.02;;;;;;;;;;4995734;28;20493;-77
2023/04/29 04:34:28;;;;;;;12.95;7.22;;;;;;;;;;4995671;28;20026;-79
2023/04/29 04:36:53;;;;;;;18.03;7.70;;;;;;;;;;4996422;28;20022;-79
2023/04/29 04:39:18;;;;;;;13.37;7.40;;;;;;;;;;4995959;28;20786;-77
2023/04/29 04:41:43;;;;;;;13.85;8.18;;;;;;;;;;4994838;28;20354;-79
2023/04/29 04:44:09;;;;;;;13.00;7.17;;;;;;;;;;4996662;28;20137;-78
2023/04/29 04:46:35;;;;;;;11.25;6.82;;;;;;;;;;5010829;28;20636;-78
2023/04/29 04:49:01;;;;;;;10.50;6.53;;;;;;;;;;4993969;28;20062;-79
2023/04/29 04:51:27;;;;;;;13.20;7.18;;;;;;;;;;4995094;28;20022;-79
2023/04/29 04:53:52;;;;;;;9.88;6.60;;;;;;;;;;4996403;28;20493;-79
2023/04/29 04:56:18;;;;;;;10.32;6.65;;;;;;;;;;4995885;28;20041;-79
2023/04/29 04:58:43;;;;;;;10.73;6.40;;;;;;;;;;4996426;28;20049;-78
2023/04/29 05:01:08;;;;;;;13.02;6.68;;;;;;;;;;4996092;28;20259;-79
2023/04/29 05:03:34;;;;;;;14.18;6.88;;;;;;;;;;4994430;28;20033;-79
2023/04/29 05:05:59;;;;;;;11.85;6.63;;;;;;;;;;4995972;28;20048;-79
2023/04/29 05:08:25;;;;;;;10.35;6.43;;;;;;;;;;4995638;28;20402;-79
2023/04/29 05:10:51;;;;;;;11.02;6.43;;;;;;;;;;4994535;28;20100;-79
2023/04/29 05:13:17;;;;;;;11.50;6.13;;;;;;;;;;4995924;28;20078;-79
2023/04/29 05:15:43;;;;;;;9.65;5.63;;;;;;;;;;4995873;28;20463;-78
2023/04/29 05:18:09;;;;;;;10.75;6.38;;;;;;;;;;4994399;28;20019;-79
2023/04/29 05:20:35;;;;;;;11.85;6.43;;;;;;;;;;4994530;28;20022;-78
2023/04/29 05:23:01;;;;;;;11.18;5.85;;;;;;;;;;5009415;28;20387;-79
2023/04/29 05:25:26;;;;;;;9.95;5.47;;;;;;;;;;4994738;28;20034;-77
2023/04/29 05:27:52;;;;;;;11.57;5.90;;;;;;;;;;5010014;28;20485;-78
2023/04/29 05:30:17;;;;;;;10.52;5.95;;;;;;;;;;4994370;28;20267;-79
2023/04/29 05:32:44;;;;;;;8.18;5.40;;;;;;;;;;4993618;28;20053;-78
2023/04/29 05:35:10;;;;;;;9.93;6.00;;;;;;;;;;4993275;28;20033;-79
2023/04/29 05:37:35;;;;;;;9.63;6.50;;;;;;;;;;4995977;28;20425;-77
2023/04/29 05:40:00;;;;;;;10.27;6.30;;;;;;;;;;4995079;28;20037;-79
2023/04/29 05:42:26;;;;;;;12.43;6.60;;;;;;;;;;4995353;28;20030;-78
2023/04/29 05:44:52;;;;;;;11.95;6.95;;;;;;;;;;5009709;28;20502;-77
2023/04/29 05:47:17;;;;;;;12.02;6.50;;;;;;;;;;4992876;28;20033;-79
2023/04/29 05:49:42;;;;;;;13.97;7.20;;;;;;;;;;4994046;28;20370;-79
2023/04/29 05:52:07;;;;;;;10.70;7.13;;;;;;;;;;4994273;28;20635;-78
2023/04/29 05:54:33;;;;;;;10.63;6.80;;;;;;;;;;4994075;28;20604;-78
2023/04/29 05:57:01;;;;;;;10.10;6.40;;;;;;;;;;4993711;28;20647;-78
2023/04/29 05:59:29;;;;;;;10.32;6.93;;;;;;;;;;4993912;28;20040;-78
2023/04/29 06:01:55;;;;;;;11.48;6.85;;;;;;;;;;4995708;28;20401;-79
2023/04/29 06:04:20;;;;;;;11.18;7.00;;;;;;;;;;5013062;28;20019;-77
2023/04/29 06:06:45;;;;;;;11.77;7.05;;;;;;;;;;4996448;28;20053;-77
2023/04/29 06:09:14;;;;;;;10.93;7.07;;;;;;;;;;4997642;28;20033;-79
2023/04/29 06:11:39;;;;;;;11.10;6.88;;;;;;;;;;4996034;28;20294;-78
2023/04/29 06:14:04;;;;;;;12.77;8.07;;;;;;;;;;4997633;28;20026;-78
2023/04/29 06:16:29;;;;;;;15.07;8.43;;;;;;;;;;4997658;28;20275;-78
2023/04/29 06:18:55;;;;;;;14.02;7.82;;;;;;;;;;4998903;28;20508;-78
2023/04/29 06:21:20;;;;;;;11.32;7.35;;;;;;;;;;4997150;28;20104;-78
2023/04/29 06:23:46;;;;;;;11.97;7.80;;;;;;;;;;4998734;28;20030;-78
2023/04/29 06:26:11;;;;;;;11.55;7.50;;;;;;;;;;4998390;28;20255;-77
2023/04/29 06:28:36;;;;;;;12.47;7.87;;;;;;;;;;4998728;28;20090;-78
2023/04/29 06:31:01;;;;;;;11.20;7.43;;;;;;;;;;4998526;28;20295;-79
2023/04/29 06:33:27;;;;;;;11.77;7.47;;;;;;;;;;4998682;28;20264;-78
2023/04/29 06:35:52;;;;;;;14.05;8.63;;;;;;;;;;4997959;28;20248;-78
2023/04/29 06:38:17;;;;;;;12.90;8.50;;;;;;;;;;4998423;28;20030;-78
2023/04/29 06:40:43;;;;;;;15.48;8.80;;;;;;;;;;4996995;28;20411;-79
2023/04/29 06:43:08;;;;;;;16.08;9.68;;;;;;;;;;4995299;28;20109;-78
2023/04/29 06:45:33;;;;;;;15.20;9.10;;;;;;;;;;4996437;28;20120;-78
2023/04/29 06:47:59;;;;;;;16.05;9.32;;;;;;;;;;4997930;28;20260;-79
2023/04/29 06:50:24;;;;;;;13.10;8.57;;;;;;;;;;4997534;28;20396;-79
2023/04/29 06:52:50;;;;;;;14.38;8.63;;;;;;;;;;5012660;28;20041;-79
2023/04/29 06:55:15;;;;;;;13.95;9.07;;;;;;;;;;4997847;28;20442;-79
2023/04/29 06:57:41;;;;;;;13.43;8.60;;;;;;;;;;4998404;28;20548;-79
2023/04/29 07:00:07;;;;;;;13.70;8.93;;;;;;;;;;4997607;28;20026;-79
2023/04/29 07:02:32;;;;;;;14.73;9.45;;;;;;;;;;4996641;28;20034;-78
2023/04/29 07:04:58;;;;;;;15.07;9.70;;;;;;;;;;5012340;28;20429;-78
2023/04/29 07:07:23;;;;;;;16.50;9.77;;;;;;;;;;4997442;28;20466;-78
2023/04/29 07:09:51;;;;;;;20.87;10.90;;;;;;;;;;4997295;28;20025;-78
2023/04/29 07:12:16;;;;;;;18.63;10.85;;;;;;;;;;4996939;28;20263;-78
2023/04/29 07:14:41;;;;;;;18.98;10.73;;;;;;;;;;4997595;28;20022;-77
2023/04/29 07:17:07;;;;;;;17.63;10.33;;;;;;;;;;4996468;28;20030;-80
2023/04/29 07:19:32;;;;;;;17.63;10.57;;;;;;;;;;4996515;28;20252;-77
2023/04/29 07:21:57;;;;;;;16.57;9.87;;;;;;;;;;5012274;28;20342;-77
2023/04/29 07:24:23;;;;;;;15.95;10.50;;;;;;;;;;4997114;28;20272;-78
2023/04/29 07:26:48;;;;;;;15.70;10.27;;;;;;;;;;5011778;28;20026;-78
2023/04/29 07:29:13;;;;;;;17.00;10.40;;;;;;;;;;4996950;28;20085;-79
2023/04/29 07:31:38;;;;;;;15.57;9.77;;;;;;;;;;4996103;28;20726;-78
2023/04/29 07:34:04;;;;;;;16.93;10.17;;;;;;;;;;5011208;28;20755;-78
2023/04/29 07:36:30;;;;;;;17.10;10.20;;;;;;;;;;4996056;28;20628;-78
2023/04/29 07:38:55;;;;;;;16.98;10.75;;;;;;;;;;4995280;28;20026;-77
2023/04/29 07:41:21;;;;;;;18.60;10.75;;;;;;;;;;5011823;28;20038;-78
2023/04/29 07:43:46;;;;;;;17.77;11.30;;;;;;;;;;4996611;28;20022;-78
2023/04/29 07:46:11;;;;;;;23.67;12.97;;;;;;;;;;4996467;28;20023;-78
2023/04/29 07:48:39;;;;;;;18.38;11.30;;;;;;;;;;4996744;28;20323;-78
2023/04/29 07:51:05;;;;;;;20.17;12.13;;;;;;;;;;4996678;28;20109;-78
2023/04/29 07:53:30;;;;;;;20.25;10.90;;;;;;;;;;4996886;28;20504;-78
2023/04/29 07:55:56;;;;;;;16.10;10.57;;;;;;;;;;4996781;28;20486;-78
2023/04/29 07:58:21;;;;;;;16.83;11.20;;;;;;;;;;4997741;28;20485;-86
2023/04/29 08:00:46;;;;;;;18.75;10.88;;;;;;;;;;4996309;28;20717;-79
2023/04/29 08:03:12;;;;;;;17.98;11.18;;;;;;;;;;4997089;28;20117;-79
2023/04/29 08:05:37;;;;;;;17.52;10.65;;;;;;;;;;5012504;28;20041;-78
2023/04/29 08:08:02;;;;;;;18.23;10.63;;;;;;;;;;4998902;28;20026;-77
2023/04/29 08:10:28;;;;;;;15.48;9.60;;;;;;;;;;4995549;28;20397;-79
2023/04/29 08:12:53;;;;;;;14.57;9.73;;;;;;;;;;4996438;28;20030;-78
2023/04/29 08:15:19;;;;;;;17.13;9.88;;;;;;;;;;4995601;28;20271;-78
2023/04/29 08:17:44;;;;;;;14.60;9.20;;;;;;;;;;5010998;28;20034;-78
2023/04/29 08:20:11;;;;;;;12.82;8.50;;;;;;;;;;4996231;28;20051;-79
2023/04/29 08:22:36;;;;;;;10.65;7.28;;;;;;;;;;4995407;28;20398;-78
2023/04/29 08:25:04;;;;;;;8.65;6.93;;;;;;;;;;4995758;28;20072;-79
2023/04/29 08:27:29;;;;;;;9.90;7.40;;;;;;;;;;4995364;28;20026;-77
2023/04/29 08:29:55;;;;;;;10.65;7.30;;;;;;;;;;4995609;28;20037;-78
2023/04/29 08:32:20;;;;;;;8.45;6.15;;;;;;;;;;4995702;28;20026;-78
2023/04/29 08:34:45;;;;;;;8.38;6.55;;;;;;;;;;4995588;28;20022;-79
2023/04/29 08:37:10;;;;;;;10.63;7.25;;;;;;;;;;4995198;28;20022;-80
2023/04/29 08:39:36;;;;;;;8.30;6.40;;;;;;;;;;4995768;28;20015;-78
2023/04/29 08:42:10;;;;;;;9.65;7.10;;;;;;;;;;4996188;28;20030;-79
2023/04/29 08:44:35;;;;;;;7.88;6.55;;;;;;;;;;4995415;28;20032;-79
2023/04/29 08:47:01;;;;;;;8.50;6.30;;;;;;;;;;4995477;28;20381;-78
2023/04/29 08:49:27;;;;;;;9.05;6.38;;;;;;;;;;4994388;28;20464;-80
2023/04/29 08:51:53;;;;;;;10.95;6.55;;;;;;;;;;4995557;28;20026;-80
2023/04/29 08:54:18;;;;;;;7.88;6.03;;;;;;;;;;4995230;28;20033;-79
2023/04/29 08:56:45;;;;;;;9.02;6.43;;;;;;;;;;4994553;28;20124;-78
2023/04/29 08:59:12;;;;;;;8.98;6.30;;;;;;;;;;4995299;28;20409;-78
2023/04/29 09:01:40;;;;;;;10.02;7.05;;;;;;;;;;4993612;28;20022;-79
2023/04/29 09:04:20;;;;;;;9.35;6.85;;;;;;;;;;4994835;28;20035;-79
2023/04/29 09:06:46;;;;;;;9.45;6.20;;;;;;;;;;4995285;28;20049;-79
2023/04/29 09:09:13;;;;;;;10.70;6.72;;;;;;;;;;4995068;28;20034;-80
2023/04/29 09:11:38;;;;;;;9.80;6.95;;;;;;;;;;4993851;28;20027;-80
2023/04/29 09:14:04;;;;;;;9.57;6.35;;;;;;;;;;4995283;28;20109;-79
2023/04/29 09:16:29;;;;;;;10.18;6.70;;;;;;;;;;4993832;28;20061;-80
2023/04/29 09:18:55;;;;;;;10.85;6.55;;;;;;;;;;4994640;28;20037;-80
2023/04/29 09:21:28;;;;;;;8.63;6.22;;;;;;;;;;4995201;28;20026;-77
2023/04/29 09:24:03;;;;;;;7.75;6.00;;;;;;;;;;4994886;28;20034;-78
2023/04/29 09:26:42;;;;;;;10.90;5.82;;;;;;;;;;4995134;28;20028;-79
2023/04/29 09:29:12;;;;;;;9.20;6.25;;;;;;;;;;4995440;28;20073;-78
2023/04/29 09:31:38;;;;;;;9.68;6.45;;;;;;;;;;4995185;28;20417;-78
2023/04/29 09:34:04;;;;;;;8.80;6.47;;;;;;;;;;4995052;28;20048;-79
2023/04/29 09:36:39;;;;;;;8.38;6.20;;;;;;;;;;4998742;28;20034;-78
2023/04/29 09:39:10;;;;;;;13.88;7.43;;;;;;;;;;4998856;28;20153;-79
2023/04/29 09:41:37;;;;;;;9.52;6.88;;;;;;;;;;4999557;28;20033;-79
2023/04/29 09:44:04;;;;;;;9.15;6.53;;;;;;;;;;4997941;28;20057;-79
2023/04/29 09:46:31;;;;;;;10.52;6.32;;;;;;;;;;4999023;28;20037;-80
2023/04/29 09:48:57;;;;;;;7.95;6.20;;;;;;;;;;5000541;28;20112;-80
2023/04/29 09:51:22;;;;;;;9.15;5.72;;;;;;;;;;5016423;28;20026;-79
2023/04/29 09:53:48;;;;;;;10.55;5.80;;;;;;;;;;5001989;28;20030;-80
2023/04/29 09:56:13;;;;;;;6.87;5.13;;;;;;;;;;5014469;28;20068;-79
2023/04/29 09:58:39;;;;;;;8.68;5.68;;;;;;;;;;4999361;28;20762;-79
2023/04/29 10:01:05;;;;;;;8.40;5.20;;;;;;;;;;4997744;28;20110;-79
2023/04/29 10:03:35;;;;;;;9.43;5.45;;;;;;;;;;4999124;28;20033;-79
2023/04/29 10:06:03;;;;;;;8.80;5.13;;;;;;;;;;4999174;28;20027;-80
2023/04/29 10:08:29;;;;;;;7.13;5.05;;;;;;;;;;4997870;28;20547;-80
2023/04/29 10:11:02;;;;;;;8.88;5.35;;;;;;;;;;4998402;28;20038;-81
2023/04/29 10:13:29;;;;;;;7.13;4.55;;;;;;;;;;4999663;28;20498;-78
2023/04/29 10:16:18;;;;;;;6.57;4.97;;;;;;;;;;5003008;28;20066;-79
2023/04/29 10:18:51;;;;;;;6.60;4.72;;;;;;;;;;4998754;28;20033;-78
2023/04/29 10:21:18;;;;;;;9.10;5.43;;;;;;;;;;4996786;28;20516;-78
2023/04/29 10:23:43;;;;;;;7.18;5.22;;;;;;;;;;4999326;28;20022;-78
2023/04/29 10:26:11;;;;;;;8.88;5.50;;;;;;;;;;4999430;28;20076;-78
2023/04/29 10:28:39;;;;;;;8.60;5.50;;;;;;;;;;4999512;28;20050;-78
2023/04/29 10:31:06;;;;;;;8.45;5.10;;;;;;;;;;4998686;28;20038;-77
2023/04/29 10:33:35;;;;;;;8.95;5.55;;;;;;;;;;5014166;28;20076;-79
2023/04/29 10:36:01;;;;;;;7.90;5.57;;;;;;;;;;4999325;28;20028;-78
2023/04/29 10:38:35;;;;;;;10.35;5.80;;;;;;;;;;4999307;28;20053;-79
2023/04/29 10:41:07;;;;;;;8.25;5.63;;;;;;;;;;4997412;28;20098;-80
2023/04/29 10:43:32;;;;;;;8.35;5.78;;;;;;;;;;4998315;28;20049;-79
2023/04/29 10:46:17;;;;;;;8.65;5.78;;;;;;;;;;4997616;28;20018;-78
2023/04/29 10:48:43;;;;;;;9.95;6.70;;;;;;;;;;4998296;28;20026;-78
2023/04/29 10:51:08;;;;;;;8.23;5.93;;;;;;;;;;4996975;28;20084;-78
2023/04/29 10:53:34;;;;;;;9.70;7.03;;;;;;;;;;4998314;28;20505;-78
2023/04/29 10:56:05;;;;;;;9.20;5.93;;;;;;;;;;4998499;28;20062;-78
2023/04/29 10:58:34;;;;;;;8.05;5.47;;;;;;;;;;4996961;28;20026;-77
2023/04/29 11:00:59;;;;;;;8.95;6.43;;;;;;;;;;4998265;28;20026;-78
2023/04/29 11:03:58;;;;;;;9.80;6.30;;;;;;;;;;5014021;28;20375;-78
2023/04/29 11:06:40;;;;;;;8.15;5.80;;;;;;;;;;5011661;28;20026;-77
2023/04/29 11:09:18;;;;;;;8.25;5.63;;;;;;;;;;4997244;28;20034;-79
2023/04/29 11:11:57;;;;;;;8.57;6.20;;;;;;;;;;4997851;28;20037;-78
2023/04/29 11:14:36;;;;;;;11.60;5.63;;;;;;;;;;4998038;28;20478;-78
2023/04/29 11:17:04;;;;;;;7.75;5.63;;;;;;;;;;4998308;28;20188;-81
2023/04/29 11:19:34;;;;;;;9.25;6.07;;;;;;;;;;5013517;28;20029;-81
2023/04/29 11:22:08;;;;;;;8.10;5.70;;;;;;;;;;4998119;28;20046;-82
2023/04/29 11:24:35;;;;;;;10.27;6.40;;;;;;;;;;4998188;28;20034;-81
2023/04/29 11:27:03;;;;;;;9.43;5.88;;;;;;;;;;4997970;28;20508;-82
2023/04/29 11:29:30;;;;;;;9.70;6.80;;;;;;;;;;4997899;28;20026;-81
2023/04/29 11:32:00;;;;;;;10.00;7.00;;;;;;;;;;4997849;28;20030;-83
2023/04/29 11:34:26;;;;;;;9.35;6.25;;;;;;;;;;4998632;28;20482;-81
2023/04/29 11:36:52;;;;;;;7.78;5.70;;;;;;;;;;4997888;28;20034;-82
2023/04/29 11:39:17;;;;;;;8.13;5.45;;;;;;;;;;4997571;28;20027;-81
2023/04/29 11:41:42;;;;;;;6.53;4.93;;;;;;;;;;4997547;28;20038;-80
2023/04/29 11:44:08;;;;;;;6.67;5.10;;;;;;;;;;4997781;28;20113;-79
2023/04/29 11:46:34;;;;;;;7.60;5.05;;;;;;;;;;4996874;28;20259;-81
2023/04/29 11:49:00;;;;;;;7.32;4.80;;;;;;;;;;4995198;28;20025;-80
2023/04/29 11:51:27;;;;;;;7.47;4.80;;;;;;;;;;4995445;28;20392;-81
2023/04/29 11:53:52;;;;;;;6.60;5.00;;;;;;;;;;4995874;28;20049;-81
2023/04/29 11:56:21;;;;;;;5.55;4.25;;;;;;;;;;4996397;28;20648;-80
2023/04/29 11:58:47;;;;;;;5.57;4.05;;;;;;;;;;4996504;28;20018;-80
2023/04/29 12:01:12;;;;;;;5.03;3.80;;;;;;;;;;4994988;28;20025;-78
2023/04/29 12:03:37;;;;;;;5.32;3.45;;;;;;;;;;4994905;28;20030;-80
2023/04/29 12:06:03;;;;;;;6.67;3.77;;;;;;;;;;4996251;28;20525;-80
2023/04/29 12:08:29;;;;;;;4.35;2.83;;;;;;;;;;4996221;28;20763;-79
2023/04/29 12:10:57;;;;;;;5.15;3.50;;;;;;;;;;4996351;28;20136;-79
2023/04/29 12:13:24;;;;;;;4.43;3.30;;;;;;;;;;4996042;28;20030;-79
2023/04/29 12:15:51;;;;;;;3.80;3.10;;;;;;;;;;4994730;28;20022;-80
2023/04/29 12:18:17;;;;;;;4.18;3.33;;;;;;;;;;4996040;28;20030;-79
2023/04/29 12:20:43;;;;;;;3.78;2.70;;;;;;;;;;4994884;28;20022;-79
2023/04/29 12:23:13;;;;;;;4.47;2.42;;;;;;;;;;4995969;28;20038;-79
2023/04/29 12:25:42;;;;;;;4.70;3.42;;;;;;;;;;4994799;28;20096;-79
2023/04/29 12:28:15;;;;;;;4.55;3.30;;;;;;;;;;4996069;28;20034;-80
2023/04/29 12:30:42;;;;;;;5.55;3.70;;;;;;;;;;4996250;28;20110;-80
2023/04/29 12:33:08;;;;;;;5.40;3.85;;;;;;;;;;5010979;28;20493;-79
2023/04/29 12:35:34;;;;;;;5.05;3.65;;;;;;;;;;4995620;28;20113;-82
2023/04/29 12:37:59;;;;;;;6.32;4.18;;;;;;;;;;4995779;28;20054;-79
2023/04/29 12:40:25;;;;;;;6.78;4.88;;;;;;;;;;4995986;28;20411;-81
2023/04/29 12:42:52;;;;;;;6.10;4.45;;;;;;;;;;4994533;28;20358;-80
2023/04/29 12:45:32;;;;;;;7.22;4.90;;;;;;;;;;4995263;28;20030;-80
2023/04/29 12:47:58;;;;;;;7.80;4.70;;;;;;;;;;5010463;28;20161;-81
2023/04/29 12:50:35;;;;;;;7.72;4.82;;;;;;;;;;5010560;28;20077;-80
2023/04/29 12:53:02;;;;;;;5.72;4.13;;;;;;;;;;4995543;28;20029;-78
2023/04/29 12:55:28;;;;;;;5.82;4.65;;;;;;;;;;4994850;28;20030;-80
2023/04/29 12:57:53;;;;;;;6.13;4.63;;;;;;;;;;4993819;28;20026;-79
2023/04/29 13:00:19;;;;;;;5.03;4.13;;;;;;;;;;4995341;28;20515;-80
2023/04/29 13:02:46;;;;;;;5.97;3.88;;;;;;;;;;4995923;28;20032;-80
2023/04/29 13:05:11;;;;;;;5.95;4.38;;;;;;;;;;4995398;28;20030;-80
2023/04/29 13:07:37;;;;;;;6.40;4.50;;;;;;;;;;4995032;28;20498;-81
2023/04/29 13:10:05;;;;;;;4.90;3.90;;;;;;;;;;4994843;28;20025;-81
2023/04/29 13:12:30;;;;;;;5.93;4.43;;;;;;;;;;4995388;28;20022;-80
2023/04/29 13:14:55;;;;;;;5.22;3.88;;;;;;;;;;5010210;28;20030;-78
2023/04/29 13:17:21;;;;;;;6.87;4.70;;;;;;;;;;5010082;28;20057;-80
2023/04/29 13:19:46;;;;;;;5.00;3.70;;;;;;;;;;4995215;28;20260;-81
2023/04/29 13:22:12;;;;;;;4.63;3.45;;;;;;;;;;4994994;28;20022;-79
2023/04/29 13:24:37;;;;;;;6.80;4.53;;;;;;;;;;4995435;28;20081;-79
2023/04/29 13:27:02;;;;;;;8.35;5.72;;;;;;;;;;4993512;28;20033;-81
2023/04/29 13:29:28;;;;;;;7.03;5.15;;;;;;;;;;4994706;28;20022;-81
2023/04/29 13:31:53;;;;;;;8.32;4.97;;;;;;;;;;4994804;28;20462;-81
2023/04/29 13:34:19;;;;;;;5.97;3.85;;;;;;;;;;4994818;28;20028;-78
2023/04/29 13:36:45;;;;;;;10.00;6.57;;;;;;;;;;4994570;28;20374;-78
2023/04/29 13:39:10;;;;;;;12.30;6.25;;;;;;;;;;4993436;28;20378;-81
2023/04/29 13:41:35;;;;;;;9.60;6.63;;;;;;;;;;4995088;28;20030;-80
2023/04/29 13:44:00;;;;;;;9.10;6.50;;;;;;;;;;4994982;28;20046;-80
2023/04/29 13:46:27;;;;;;;12.43;7.50;;;;;;;;;;4994968;28;20248;-80
2023/04/29 13:48:52;;;;;;;12.50;7.20;;;;;;;;;;5009798;28;20314;-81
2023/04/29 13:51:18;;;;;;;12.48;7.25;;;;;;;;;;4994806;28;20026;-81
2023/04/29 13:53:43;;;;;;;11.73;7.65;;;;;;;;;;4994889;28;20486;-81
2023/04/29 13:56:08;;;;;;;8.37;5.47;;;;;;;;;;4994499;28;20179;-81
2023/04/29 13:58:33;;;;;;;12.35;7.07;;;;;;;;;;4994860;28;20337;-79
2023/04/29 14:00:58;;;;;;;15.90;8.77;;;;;;;;;;4993177;28;20026;-80
2023/04/29 14:03:24;;;;;;;15.43;8.30;;;;;;;;;;4994916;28;20295;-79
2023/04/29 14:05:50;;;;;;;12.10;6.70;;;;;;;;;;4994694;28;20255;-79
2023/04/29 14:08:15;;;;;;;12.90;7.22;;;;;;;;;;4994204;28;20498;-80
2023/04/29 14:10:40;;;;;;;15.05;8.40;;;;;;;;;;5009390;28;20030;-80
2023/04/29 14:13:06;;;;;;;15.48;8.18;;;;;;;;;;4992889;28;20493;-80
2023/04/29 14:15:31;;;;;;;15.25;8.23;;;;;;;;;;5009600;28;20022;-81
2023/04/29 14:17:56;;;;;;;14.05;8.57;;;;;;;;;;4994390;28;20034;-80
2023/04/29 14:20:21;;;;;;;14.47;8.03;;;;;;;;;;4993514;28;20026;-80
2023/04/29 14:22:47;;;;;;;14.43;8.07;;;;;;;;;;4996937;28;20310;-80
2023/04/29 14:25:12;;;;;;;17.07;9.30;;;;;;;;;;4997655;28;20276;-80
2023/04/29 14:27:37;;;;;;;15.40;8.63;;;;;;;;;;5013202;28;20286;-80
2023/04/29 14:30:03;;;;;;;17.15;8.90;;;;;;;;;;4998000;28;20112;-80